Time;durP1;ratioP1;P1;durP2;ratioP2;P2;SDS_P1;SDS_P2;PMS_P1;PMS_P2;Temp;Humidity;BMP_temperature;BMP_pressure;BME280_temperature;BME280_humidity;BME280_pressure;Samples;Min_cycle;Max_cycle;Signal;HPM_P1;HPM_P2
2022/01/22 00:00:45;;;;;;;29.73;4.93;;;;;;;;;;5013500;28;93445;-70
2022/01/22 00:03:12;;;;;;;20.60;2.67;;;;;;;;;;5013935;28;93559;-70
2022/01/22 00:05:38;;;;;;;9.48;2.17;;;;;;;;;;5013793;28;93191;-70
2022/01/22 00:08:05;;;;;;;14.25;2.50;;;;;;;;;;5012496;28;93200;-70
2022/01/22 00:10:32;;;;;;;16.90;2.47;;;;;;;;;;5013828;28;92302;-70
2022/01/22 00:15:28;;;;;;;12.48;2.95;;;;;;;;;;5013823;28;91614;-70
2022/01/22 00:17:56;;;;;;;13.82;2.08;;;;;;;;;;5016802;28;92350;-70
2022/01/22 00:20:23;;;;;;;11.18;2.28;;;;;;;;;;5014185;28;92558;-70
2022/01/22 00:22:50;;;;;;;12.90;2.92;;;;;;;;;;5010189;28;94794;-70
2022/01/22 00:25:17;;;;;;;14.63;2.13;;;;;;;;;;5028632;28;95781;-70
2022/01/22 00:27:44;;;;;;;17.40;2.30;;;;;;;;;;5014035;28;94725;-70
2022/01/22 00:30:12;;;;;;;15.50;2.40;;;;;;;;;;5013565;28;92263;-70
2022/01/22 00:32:38;;;;;;;13.63;2.42;;;;;;;;;;5013470;28;93194;-70
2022/01/22 00:35:06;;;;;;;32.90;3.30;;;;;;;;;;5013128;28;93822;-70
2022/01/22 00:37:34;;;;;;;18.38;2.95;;;;;;;;;;5013370;28;92436;-70
2022/01/22 00:40:03;;;;;;;17.13;3.22;;;;;;;;;;5016723;28;93264;-70
2022/01/22 00:42:32;;;;;;;20.05;3.38;;;;;;;;;;5013585;28;92481;-70
2022/01/22 00:44:58;;;;;;;21.20;3.50;;;;;;;;;;5012910;28;92586;-70
2022/01/22 00:47:24;;;;;;;19.83;2.88;;;;;;;;;;4996516;28;96734;-70
2022/01/22 00:49:51;;;;;;;15.75;2.53;;;;;;;;;;5012923;28;92466;-70
2022/01/22 00:52:17;;;;;;;17.23;2.38;;;;;;;;;;4996420;28;93264;-70
2022/01/22 00:54:44;;;;;;;13.73;2.85;;;;;;;;;;5012990;28;93482;-70
2022/01/22 00:57:10;;;;;;;26.73;3.35;;;;;;;;;;5013476;28;92583;-70
2022/01/22 00:59:36;;;;;;;14.63;2.85;;;;;;;;;;5012985;28;92425;-70
2022/01/22 01:02:03;;;;;;;20.00;3.92;;;;;;;;;;5015804;28;94516;-70
2022/01/22 01:04:33;;;;;;;23.30;2.58;;;;;;;;;;5013174;28;93274;-70
2022/01/22 01:06:59;;;;;;;13.13;2.53;;;;;;;;;;5011324;28;93015;-70
2022/01/22 01:09:25;;;;;;;28.17;3.50;;;;;;;;;;5013390;28;92388;-70
2022/01/22 01:11:57;;;;;;;18.75;3.55;;;;;;;;;;5020458;28;94797;-70
2022/01/22 01:14:33;;;;;;;18.60;3.72;;;;;;;;;;5014357;27;92428;-70
2022/01/22 01:33:27;;;;;;;22.35;2.80;;;;;;;;;;5012029;28;93407;-70
2022/01/22 01:35:54;;;;;;;25.20;3.83;;;;;;;;;;5012246;28;94258;-70
2022/01/22 01:38:22;;;;;;;20.95;3.38;;;;;;;;;;4998430;28;95039;-70
2022/01/22 01:40:59;;;;;;;14.13;2.58;;;;;;;;;;5012721;28;93861;-70
2022/01/22 01:43:31;;;;;;;15.77;2.92;;;;;;;;;;5012254;28;94098;-70
2022/01/22 01:45:58;;;;;;;18.25;3.15;;;;;;;;;;5012371;28;93251;-70
2022/01/22 01:48:29;;;;;;;14.32;3.00;;;;;;;;;;5015404;28;94226;-70
2022/01/22 01:50:57;;;;;;;;;;;;;;;;;;5012728;28;92440;-70
2022/01/22 01:53:48;;;;;;;31.33;3.58;;;;;;;;;;5012948;28;120798;-70
2022/01/22 01:58:59;;;;;;;32.42;3.53;;;;;;;;;;5012058;28;92489;-70
2022/01/22 02:01:25;;;;;;;34.20;5.38;;;;;;;;;;5012269;28;94398;-70
2022/01/22 02:03:52;;;;;;;22.95;3.75;;;;;;;;;;5010025;28;96903;-70
2022/01/22 02:06:18;;;;;;;30.35;3.78;;;;;;;;;;5011624;28;92461;-70
2022/01/22 02:08:45;;;;;;;22.33;3.83;;;;;;;;;;5012270;28;93028;-70
2022/01/22 02:11:13;;;;;;;24.42;3.83;;;;;;;;;;4995129;28;92366;-70
2022/01/22 02:14:01;;;;;;;31.77;4.70;;;;;;;;;;5001765;28;92711;-70
2022/01/22 02:24:45;;;;;;;20.27;3.38;;;;;;;;;;5011563;28;93325;-70
2022/01/22 02:27:12;;;;;;;34.60;4.82;;;;;;;;;;4995638;28;92429;-70
2022/01/22 02:29:38;;;;;;;28.73;4.10;;;;;;;;;;5009877;28;94809;-70
2022/01/22 02:34:52;;;;;;;15.63;3.95;;;;;;;;;;5015337;28;92396;-70
2022/01/22 02:37:21;;;;;;;27.23;3.63;;;;;;;;;;5015331;28;93530;-70
2022/01/22 02:40:01;;;;;;;20.48;3.70;;;;;;;;;;5015282;28;92453;-70
2022/01/22 02:42:31;;;;;;;29.77;4.53;;;;;;;;;;5015688;28;92285;-70
2022/01/22 02:44:57;;;;;;;24.40;3.97;;;;;;;;;;5014789;28;92414;-70
2022/01/22 02:47:23;;;;;;;17.52;3.67;;;;;;;;;;5014813;28;91670;-70
2022/01/22 02:49:50;;;;;;;22.92;3.67;;;;;;;;;;5015510;28;92281;-70
2022/01/22 02:52:20;;;;;;;17.80;3.33;;;;;;;;;;5015027;28;93244;-70
2022/01/22 02:54:47;;;;;;;17.38;4.55;;;;;;;;;;5016280;28;94839;-70
2022/01/22 02:57:13;;;;;;;17.67;3.72;;;;;;;;;;5014855;28;92683;-70
2022/01/22 02:59:40;;;;;;;16.25;5.15;;;;;;;;;;5015298;28;92314;-70
2022/01/22 03:02:08;;;;;;;17.85;3.45;;;;;;;;;;5013121;28;92970;-70
2022/01/22 03:04:34;;;;;;;19.88;3.75;;;;;;;;;;5009102;28;93154;-70
2022/01/22 03:07:00;;;;;;;16.92;4.05;;;;;;;;;;5015065;28;92624;-70
2022/01/22 03:09:29;;;;;;;14.38;3.78;;;;;;;;;;5014892;28;92657;-70
2022/01/22 03:17:29;;;;;;;18.38;3.20;;;;;;;;;;5017507;28;93261;-70
2022/01/22 03:22:43;;;;;;;20.95;3.83;;;;;;;;;;5014976;28;94373;-70
2022/01/22 03:27:54;;;;;;;18.73;2.97;;;;;;;;;;5012943;28;92782;-70
2022/01/22 03:30:20;;;;;;;16.48;3.00;;;;;;;;;;5014544;28;93887;-70
2022/01/22 03:32:50;;;;;;;18.17;3.28;;;;;;;;;;5013406;28;92865;-70
2022/01/22 03:37:44;;;;;;;15.27;3.40;;;;;;;;;;5015178;28;93206;-70
2022/01/22 03:40:12;;;;;;;19.02;2.80;;;;;;;;;;5017302;28;92397;-70
2022/01/22 03:42:39;;;;;;;13.93;2.42;;;;;;;;;;5007963;28;92516;-70
2022/01/22 03:45:07;;;;;;;15.18;2.72;;;;;;;;;;5011437;28;96092;-70
2022/01/22 03:47:33;;;;;;;18.90;3.83;;;;;;;;;;5014548;28;92469;-70
2022/01/22 03:50:00;;;;;;;21.08;2.80;;;;;;;;;;5013607;28;92970;-70
2022/01/22 03:52:26;;;;;;;18.30;2.80;;;;;;;;;;5014614;28;93465;-70
2022/01/22 03:54:53;;;;;;;17.90;2.85;;;;;;;;;;5014191;28;92327;-70
2022/01/22 03:57:22;;;;;;;14.75;2.75;;;;;;;;;;5014249;28;93103;-70
2022/01/22 03:59:50;;;;;;;16.63;2.95;;;;;;;;;;5013790;28;94489;-70
2022/01/22 04:04:48;;;;;;;20.95;3.28;;;;;;;;;;5013963;28;94205;-70
2022/01/22 04:09:59;;;;;;;12.27;2.50;;;;;;;;;;5012283;28;95480;-70
2022/01/22 04:12:42;;;;;;;34.00;3.67;;;;;;;;;;5013783;28;93415;-70
2022/01/22 04:15:10;;;;;;;11.45;3.08;;;;;;;;;;5013142;28;92288;-70
2022/01/22 04:25:48;;;;;;;22.02;5.40;;;;;;;;;;5015955;28;93175;-70
2022/01/22 04:28:14;;;;;;;15.75;4.20;;;;;;;;;;5013375;28;91619;-70
2022/01/22 04:30:40;;;;;;;18.67;3.88;;;;;;;;;;5013658;28;92538;-70
2022/01/22 04:33:07;;;;;;;18.60;3.10;;;;;;;;;;5013051;28;92402;-70
2022/01/22 04:35:33;;;;;;;14.75;2.97;;;;;;;;;;5011399;28;95095;-70
2022/01/22 04:37:59;;;;;;;15.73;3.25;;;;;;;;;;5013276;28;94294;-70
2022/01/22 04:40:26;;;;;;;17.67;3.83;;;;;;;;;;5013174;28;92402;-70
2022/01/22 04:42:52;;;;;;;23.02;3.55;;;;;;;;;;5013373;28;92490;-70
2022/01/22 04:45:32;;;;;;;20.02;3.67;;;;;;;;;;5014665;28;93750;-70
2022/01/22 04:48:24;;;;;;;12.80;3.10;;;;;;;;;;5012935;28;92370;-70
2022/01/22 04:56:36;;;;;;;21.10;3.97;;;;;;;;;;4932863;28;92460;-70
2022/01/22 04:59:03;;;;;;;16.35;3.90;;;;;;;;;;4942419;28;92734;-70
2022/01/22 05:01:29;;;;;;;18.42;3.33;;;;;;;;;;4914429;28;96999;-70
2022/01/22 05:03:56;;;;;;;22.13;3.65;;;;;;;;;;4942158;28;92587;-70
2022/01/22 05:06:22;;;;;;;15.73;3.10;;;;;;;;;;4950780;28;93221;-70
2022/01/22 05:08:48;;;;;;;14.32;3.75;;;;;;;;;;4947961;28;92638;-70
2022/01/22 05:11:16;;;;;;;18.85;4.28;;;;;;;;;;4934349;28;93040;-70
2022/01/22 05:13:43;;;;;;;18.05;3.30;;;;;;;;;;4932144;28;93227;-70
2022/01/22 05:16:09;;;;;;;19.55;3.67;;;;;;;;;;4936339;28;92648;-70
2022/01/22 05:18:43;;;;;;;20.33;4.03;;;;;;;;;;4934095;28;93127;-70
2022/01/22 05:21:13;;;;;;;15.65;3.50;;;;;;;;;;4934220;28;93285;-70
2022/01/22 05:23:41;;;;;;;14.48;3.80;;;;;;;;;;4932098;28;92400;-70
2022/01/22 05:26:22;;;;;;;19.90;4.30;;;;;;;;;;4929269;28;95017;-70
2022/01/22 05:29:20;;;;;;;17.58;3.90;;;;;;;;;;4989405;28;92841;-70
2022/01/22 05:37:01;;;;;;;14.30;3.90;;;;;;;;;;5012728;28;92402;-70
2022/01/22 05:39:31;;;;;;;19.20;4.28;;;;;;;;;;5011753;28;92766;-70
2022/01/22 05:41:58;;;;;;;23.15;4.22;;;;;;;;;;5002904;28;92740;-70
2022/01/22 05:44:25;;;;;;;18.45;4.35;;;;;;;;;;5013087;28;91960;-70
2022/01/22 05:46:54;;;;;;;17.50;3.50;;;;;;;;;;5013020;28;92450;-70
2022/01/22 05:49:22;;;;;;;20.08;3.58;;;;;;;;;;5012319;28;94406;-70
2022/01/22 05:51:51;;;;;;;16.83;4.57;;;;;;;;;;5009618;28;94832;-70
2022/01/22 05:55:13;;;;;;;19.42;3.50;;;;;;;;;;5013196;28;95568;-70
2022/01/22 05:59:49;;;;;;;16.90;3.83;;;;;;;;;;5008460;28;93120;-70
2022/01/22 06:02:17;;;;;;;11.82;2.90;;;;;;;;;;5012136;28;94135;-70
2022/01/22 06:04:44;;;;;;;14.75;3.67;;;;;;;;;;5012426;28;92905;-70
2022/01/22 06:07:11;;;;;;;17.42;3.72;;;;;;;;;;5009796;28;92502;-70
2022/01/22 06:09:40;;;;;;;22.33;3.95;;;;;;;;;;5010898;28;92677;-70
2022/01/22 06:14:33;;;;;;;18.90;3.38;;;;;;;;;;5009456;28;93201;-70
2022/01/22 06:17:00;;;;;;;21.23;4.80;;;;;;;;;;4994785;28;95838;-70
2022/01/22 06:19:26;;;;;;;25.50;3.80;;;;;;;;;;5002354;28;95565;-70
2022/01/22 06:21:53;;;;;;;13.88;2.70;;;;;;;;;;5013439;27;92407;-70
2022/01/22 06:24:20;;;;;;;19.75;4.15;;;;;;;;;;5004132;28;92667;-70
2022/01/22 06:26:46;;;;;;;19.30;3.13;;;;;;;;;;5004198;28;93340;-70
2022/01/22 06:29:13;;;;;;;17.52;4.40;;;;;;;;;;5009884;28;92704;-70
2022/01/22 06:31:39;;;;;;;18.58;3.30;;;;;;;;;;5012040;28;92532;-70
2022/01/22 06:34:06;;;;;;;15.55;4.05;;;;;;;;;;5011832;28;93314;-70
2022/01/22 06:36:32;;;;;;;15.13;3.45;;;;;;;;;;5009499;28;93093;-70
2022/01/22 06:39:11;;;;;;;12.32;2.45;;;;;;;;;;5014158;28;92473;-70
2022/01/22 06:41:44;;;;;;;21.80;3.08;;;;;;;;;;4998397;28;94926;-70
2022/01/22 06:44:15;;;;;;;15.93;3.00;;;;;;;;;;5001833;28;92498;-70
2022/01/22 06:46:42;;;;;;;23.40;3.30;;;;;;;;;;5011443;28;92810;-70
2022/01/22 06:49:08;;;;;;;13.40;2.63;;;;;;;;;;5010670;28;92337;-70
2022/01/22 06:51:35;;;;;;;17.27;2.67;;;;;;;;;;5011921;28;92389;-70
2022/01/22 06:54:02;;;;;;;13.25;2.72;;;;;;;;;;5010676;28;92991;-70
2022/01/22 06:56:30;;;;;;;17.05;4.22;;;;;;;;;;5011614;28;93366;-70
2022/01/22 06:58:57;;;;;;;12.18;3.10;;;;;;;;;;5014786;28;91609;-70
2022/01/22 07:01:24;;;;;;;19.90;3.00;;;;;;;;;;5011192;28;92602;-70
2022/01/22 07:03:51;;;;;;;14.23;2.58;;;;;;;;;;5011290;28;92410;-70
2022/01/22 07:06:18;;;;;;;14.23;2.90;;;;;;;;;;5009457;28;94906;-70
2022/01/22 07:08:44;;;;;;;11.23;2.75;;;;;;;;;;5010764;28;93194;-70
2022/01/22 07:11:10;;;;;;;14.63;2.67;;;;;;;;;;5012021;28;92417;-70
2022/01/22 07:13:37;;;;;;;17.60;2.95;;;;;;;;;;5018872;28;93164;-70
2022/01/22 07:16:04;;;;;;;12.18;3.00;;;;;;;;;;5011203;28;93477;-70
2022/01/22 07:18:31;;;;;;;16.40;2.70;;;;;;;;;;5014035;28;92425;-70
2022/01/22 07:20:57;;;;;;;17.67;3.25;;;;;;;;;;5018093;28;92796;-70
2022/01/22 07:26:02;;;;;;;14.70;2.10;;;;;;;;;;4995140;28;92368;-70
2022/01/22 07:28:28;;;;;;;13.43;2.58;;;;;;;;;;5025517;28;94549;-70
2022/01/22 07:30:55;;;;;;;19.25;2.55;;;;;;;;;;5013462;27;94780;-70
2022/01/22 07:33:21;;;;;;;15.20;2.42;;;;;;;;;;5009858;28;94219;-71
2022/01/22 07:35:48;;;;;;;10.77;2.15;;;;;;;;;;4996297;28;95758;-70
2022/01/22 07:38:14;;;;;;;14.02;2.10;;;;;;;;;;4996149;28;92906;-70
2022/01/22 07:40:41;;;;;;;14.07;1.90;;;;;;;;;;5013797;28;92344;-70
2022/01/22 07:43:07;;;;;;;19.48;3.47;;;;;;;;;;5017293;28;94506;-70
2022/01/22 07:45:34;;;;;;;9.32;2.03;;;;;;;;;;5013380;28;94169;-71
2022/01/22 07:48:00;;;;;;;11.70;2.15;;;;;;;;;;5014135;28;92328;-69
2022/01/22 07:50:26;;;;;;;12.10;2.40;;;;;;;;;;5014130;28;92411;-69
2022/01/22 07:52:53;;;;;;;8.95;2.08;;;;;;;;;;5011517;28;94488;-69
2022/01/22 07:55:21;;;;;;;13.77;2.70;;;;;;;;;;5013113;28;94826;-69
2022/01/22 07:57:48;;;;;;;12.40;2.58;;;;;;;;;;5014349;28;92471;-70
2022/01/22 08:00:16;;;;;;;14.23;2.35;;;;;;;;;;5013029;28;93028;-70
2022/01/22 08:02:42;;;;;;;6.90;1.98;;;;;;;;;;5013154;28;93252;-71
2022/01/22 08:05:09;;;;;;;15.68;1.60;;;;;;;;;;5017556;28;93178;-70
2022/01/22 08:07:35;;;;;;;16.80;1.92;;;;;;;;;;5011549;28;92435;-70
2022/01/22 08:10:02;;;;;;;11.05;2.13;;;;;;;;;;5014014;28;92545;-70
2022/01/22 08:12:29;;;;;;;15.23;2.10;;;;;;;;;;5014478;28;92039;-70
2022/01/22 08:14:55;;;;;;;18.42;2.25;;;;;;;;;;5013022;28;93465;-71
2022/01/22 08:17:22;;;;;;;11.68;2.33;;;;;;;;;;5006689;28;92504;-70
2022/01/22 08:19:48;;;;;;;12.55;1.38;;;;;;;;;;5010071;28;94834;-70
2022/01/22 08:22:14;;;;;;;14.82;2.63;;;;;;;;;;5006558;28;93092;-71
2022/01/22 08:24:40;;;;;;;12.93;2.38;;;;;;;;;;5003616;28;93050;-70
2022/01/22 08:27:17;;;;;;;13.50;2.33;;;;;;;;;;4996744;28;93252;-71
2022/01/22 08:29:44;;;;;;;6.93;1.85;;;;;;;;;;5008296;28;92581;-69
2022/01/22 08:37:27;;;;;;;16.05;1.95;;;;;;;;;;5006822;28;92558;-70
2022/01/22 08:39:53;;;;;;;5.38;1.17;;;;;;;;;;5013559;28;92790;-71
2022/01/22 08:42:20;;;;;;;13.15;2.58;;;;;;;;;;5011431;28;92516;-70
2022/01/22 08:44:47;;;;;;;11.85;2.20;;;;;;;;;;5010402;28;94828;-70
2022/01/22 08:47:13;;;;;;;17.30;2.22;;;;;;;;;;5012956;28;95585;-71
2022/01/22 08:49:41;;;;;;;11.82;1.70;;;;;;;;;;5005246;28;92504;-71
2022/01/22 08:52:11;;;;;;;18.33;2.25;;;;;;;;;;5011669;28;93140;-71
2022/01/22 08:54:38;;;;;;;9.65;1.30;;;;;;;;;;5009608;28;92490;-71
2022/01/22 08:57:05;;;;;;;9.43;1.75;;;;;;;;;;5012819;28;92464;-74
2022/01/22 08:59:31;;;;;;;18.15;1.73;;;;;;;;;;5013352;28;92375;-71
2022/01/22 09:01:58;;;;;;;15.57;2.00;;;;;;;;;;5013812;28;91800;-71
2022/01/22 09:04:24;;;;;;;16.05;1.98;;;;;;;;;;5012877;28;92433;-71
2022/01/22 09:06:51;;;;;;;9.80;2.53;;;;;;;;;;5012866;28;92424;-71
2022/01/22 09:09:18;;;;;;;18.13;2.55;;;;;;;;;;5012952;28;95564;-69
2022/01/22 09:11:44;;;;;;;12.80;2.13;;;;;;;;;;5013653;28;95815;-69
2022/01/22 09:14:14;;;;;;;17.15;2.25;;;;;;;;;;5012743;28;92413;-69
2022/01/22 09:16:41;;;;;;;11.30;2.08;;;;;;;;;;5001927;28;92964;-70
2022/01/22 09:19:09;;;;;;;15.23;2.55;;;;;;;;;;4994586;28;92369;-71
2022/01/22 09:21:37;;;;;;;18.52;2.45;;;;;;;;;;5011915;28;94451;-71
2022/01/22 09:24:04;;;;;;;12.23;2.00;;;;;;;;;;5008228;28;92472;-71
2022/01/22 09:26:30;;;;;;;16.33;2.60;;;;;;;;;;5012849;28;91878;-71
2022/01/22 09:28:58;;;;;;;17.73;2.42;;;;;;;;;;5012334;28;93445;-71
2022/01/22 09:31:25;;;;;;;14.20;2.35;;;;;;;;;;5013548;28;92432;-71
2022/01/22 09:33:52;;;;;;;11.95;1.95;;;;;;;;;;5010127;28;94918;-71
2022/01/22 09:36:18;;;;;;;10.25;2.28;;;;;;;;;;5012482;28;92549;-71
2022/01/22 09:38:44;;;;;;;13.45;2.63;;;;;;;;;;5012892;28;92373;-72
2022/01/22 09:41:11;;;;;;;13.52;2.58;;;;;;;;;;5009532;28;92375;-71
2022/01/22 09:43:37;;;;;;;7.55;2.22;;;;;;;;;;5012712;28;92378;-71
2022/01/22 09:46:04;;;;;;;19.98;3.20;;;;;;;;;;5012391;28;92742;-71
2022/01/22 09:48:31;;;;;;;13.20;2.75;;;;;;;;;;5010509;28;93638;-71
2022/01/22 09:50:57;;;;;;;13.55;3.05;;;;;;;;;;5013058;28;91788;-71
2022/01/22 09:53:23;;;;;;;9.10;3.20;;;;;;;;;;5015602;28;93101;-68
2022/01/22 09:55:51;;;;;;;18.40;4.00;;;;;;;;;;5011479;28;93004;-71
2022/01/22 09:58:17;;;;;;;18.67;4.05;;;;;;;;;;5008574;28;94847;-71
2022/01/22 10:00:43;;;;;;;15.73;5.03;;;;;;;;;;5010176;28;92453;-71
2022/01/22 10:03:14;;;;;;;18.50;4.93;;;;;;;;;;5012225;28;92565;-71
2022/01/22 10:05:41;;;;;;;18.17;4.68;;;;;;;;;;5016147;28;94287;-71
2022/01/22 10:08:34;;;;;;;21.77;5.55;;;;;;;;;;5003088;28;92456;-70
2022/01/22 10:11:01;;;;;;;29.63;5.93;;;;;;;;;;4992372;28;92411;-71
2022/01/22 10:13:39;;;;;;;16.38;5.50;;;;;;;;;;4995955;28;92445;-70
2022/01/22 10:16:20;;;;;;;18.08;4.80;;;;;;;;;;5000131;28;91982;-71
2022/01/22 10:18:46;;;;;;;;;;;;;;;;;;5003322;28;92629;-70
2022/01/22 10:21:14;;;;;;;17.10;5.20;;;;;;;;;;5008457;28;123132;-75
2022/01/22 10:23:41;;;;;;;18.00;4.93;;;;;;;;;;5008617;28;94793;-71
2022/01/22 10:26:11;;;;;;;19.48;5.10;;;;;;;;;;5012094;28;96800;-71
2022/01/22 10:28:38;;;;;;;14.03;5.70;;;;;;;;;;5011642;28;93213;-71
2022/01/22 10:31:07;;;;;;;19.83;5.70;;;;;;;;;;5011359;28;92974;-71
2022/01/22 10:33:35;;;;;;;15.18;6.13;;;;;;;;;;5011260;28;92367;-71
2022/01/22 10:36:10;;;;;;;17.38;5.70;;;;;;;;;;5011399;28;92411;-71
2022/01/22 10:38:44;;;;;;;19.15;6.20;;;;;;;;;;5014377;28;92422;-71
2022/01/22 10:41:11;;;;;;;21.52;7.38;;;;;;;;;;5012340;28;91654;-71
2022/01/22 10:43:42;;;;;;;17.90;7.38;;;;;;;;;;5011736;28;92334;-71
2022/01/22 10:48:44;;;;;;;31.05;6.95;;;;;;;;;;5009845;28;95725;-71
2022/01/22 10:51:11;;;;;;;15.52;5.18;;;;;;;;;;5008528;28;92444;-71
2022/01/22 10:53:41;;;;;;;18.92;5.68;;;;;;;;;;5011937;28;93067;-71
2022/01/22 10:56:08;;;;;;;15.30;4.80;;;;;;;;;;4996438;28;93422;-71
2022/01/22 10:58:35;;;;;;;14.85;5.07;;;;;;;;;;5001141;28;92449;-71
2022/01/22 11:01:03;;;;;;;14.27;4.07;;;;;;;;;;5014444;28;92834;-71
2022/01/22 11:03:29;;;;;;;15.23;4.07;;;;;;;;;;5014909;28;92390;-71
2022/01/22 11:05:57;;;;;;;13.32;3.85;;;;;;;;;;5015534;28;93156;-71
2022/01/22 11:08:23;;;;;;;14.95;4.40;;;;;;;;;;5014309;28;92306;-71
2022/01/22 11:10:50;;;;;;;9.20;3.42;;;;;;;;;;5014642;28;92492;-71
2022/01/22 11:13:16;;;;;;;8.63;3.00;;;;;;;;;;5013241;28;94792;-71
2022/01/22 11:15:43;;;;;;;15.48;4.28;;;;;;;;;;5012081;28;93431;-71
2022/01/22 11:18:11;;;;;;;9.25;3.33;;;;;;;;;;5014829;28;92472;-71
2022/01/22 11:20:38;;;;;;;18.02;3.92;;;;;;;;;;5015975;28;92426;-71
2022/01/22 11:23:05;;;;;;;13.50;3.00;;;;;;;;;;5014367;28;92457;-71
2022/01/22 11:25:33;;;;;;;6.38;2.97;;;;;;;;;;5013862;28;93336;-71
2022/01/22 11:28:00;;;;;;;9.70;3.38;;;;;;;;;;5014419;28;94415;-71
2022/01/22 11:30:27;;;;;;;12.50;3.33;;;;;;;;;;5014308;28;91642;-71
2022/01/22 11:33:04;;;;;;;9.88;3.38;;;;;;;;;;5014438;28;92498;-71
2022/01/22 11:35:37;;;;;;;15.57;4.30;;;;;;;;;;5014323;28;93463;-71
2022/01/22 11:38:07;;;;;;;11.20;4.28;;;;;;;;;;5013219;28;94782;-71
2022/01/22 11:40:34;;;;;;;14.77;3.90;;;;;;;;;;5014462;28;95593;-71
2022/01/22 11:43:09;;;;;;;13.10;4.18;;;;;;;;;;5016305;28;92486;-71
2022/01/22 11:45:42;;;;;;;14.63;3.53;;;;;;;;;;5014552;28;93333;-71
2022/01/22 11:48:09;;;;;;;17.73;3.42;;;;;;;;;;5013791;28;92387;-71
2022/01/22 11:50:35;;;;;;;9.82;4.20;;;;;;;;;;5014521;28;92462;-71
2022/01/22 11:53:20;;;;;;;20.60;4.60;;;;;;;;;;5014347;28;92677;-71
2022/01/22 11:56:05;;;;;;;15.38;4.85;;;;;;;;;;5014905;28;92557;-71
2022/01/22 11:58:31;;;;;;;16.63;5.90;;;;;;;;;;5012554;28;92958;-71
2022/01/22 12:00:57;;;;;;;14.20;5.70;;;;;;;;;;5013948;28;92469;-71
2022/01/22 12:03:24;;;;;;;11.73;5.40;;;;;;;;;;5011519;28;96820;-70
2022/01/22 12:06:10;;;;;;;15.77;5.60;;;;;;;;;;4997626;28;92438;-71
2022/01/22 12:08:55;;;;;;;22.17;6.43;;;;;;;;;;4994253;28;92643;-70
2022/01/22 12:14:46;;;;;;;18.50;6.07;;;;;;;;;;5011036;28;94289;-71
2022/01/22 12:17:18;;;;;;;16.95;5.35;;;;;;;;;;5013520;28;92355;-71
2022/01/22 12:22:39;;;;;;;19.13;5.43;;;;;;;;;;5013474;28;93075;-72
2022/01/22 12:25:08;;;;;;;22.25;5.63;;;;;;;;;;5011907;28;92928;-72
2022/01/22 12:27:44;;;;;;;15.50;6.15;;;;;;;;;;5013495;28;92441;-72
2022/01/22 12:30:10;;;;;;;19.13;6.10;;;;;;;;;;5013423;28;94758;-71
2022/01/22 12:32:43;;;;;;;15.70;5.80;;;;;;;;;;5013235;28;92682;-71
2022/01/22 12:35:11;;;;;;;20.70;5.82;;;;;;;;;;5013476;28;92879;-71
2022/01/22 12:37:41;;;;;;;13.57;5.95;;;;;;;;;;5013570;28;94257;-72
2022/01/22 12:40:09;;;;;;;13.73;5.17;;;;;;;;;;5014321;28;92646;-70
2022/01/22 12:42:52;;;;;;;12.82;5.22;;;;;;;;;;5012955;28;92383;-69
2022/01/22 12:45:20;;;;;;;14.75;4.88;;;;;;;;;;5006625;28;93416;-69
2022/01/22 12:47:47;;;;;;;12.73;4.32;;;;;;;;;;5014010;28;91730;-69
2022/01/22 12:50:14;;;;;;;13.77;3.88;;;;;;;;;;5014033;28;93476;-69
2022/01/22 12:52:45;;;;;;;14.35;3.95;;;;;;;;;;5015800;28;93799;-69
2022/01/22 12:55:15;;;;;;;13.40;4.72;;;;;;;;;;5009237;28;94872;-69
2022/01/22 12:57:57;;;;;;;15.65;3.75;;;;;;;;;;5006984;28;93677;-70
2022/01/22 13:00:23;;;;;;;14.65;3.28;;;;;;;;;;4997802;28;92471;-70
2022/01/22 13:02:57;;;;;;;11.27;3.15;;;;;;;;;;5001286;28;93383;-70
2022/01/22 13:05:26;;;;;;;14.27;3.38;;;;;;;;;;5013562;28;94526;-70
2022/01/22 13:07:56;;;;;;;11.23;3.13;;;;;;;;;;5012431;28;92509;-70
2022/01/22 13:10:27;;;;;;;6.33;2.87;;;;;;;;;;5013352;28;92829;-71
2022/01/22 13:12:56;;;;;;;15.05;3.20;;;;;;;;;;5015410;28;91773;-71
2022/01/22 13:15:22;;;;;;;13.10;2.90;;;;;;;;;;5012779;28;92387;-71
2022/01/22 13:17:59;;;;;;;11.68;3.47;;;;;;;;;;5013178;28;93580;-71
2022/01/22 13:20:27;;;;;;;12.75;3.70;;;;;;;;;;5011564;28;94913;-71
2022/01/22 13:22:54;;;;;;;10.98;3.22;;;;;;;;;;5018804;28;96616;-71
2022/01/22 13:25:25;;;;;;;10.25;3.60;;;;;;;;;;5016566;27;93963;-72
2022/01/22 13:27:59;;;;;;;15.30;3.75;;;;;;;;;;5011082;28;92450;-70
2022/01/22 13:30:31;;;;;;;13.90;4.20;;;;;;;;;;5001185;28;93349;-72
2022/01/22 13:33:03;;;;;;;14.55;4.30;;;;;;;;;;5006628;28;93491;-73
2022/01/22 13:36:07;;;;;;;20.45;4.88;;;;;;;;;;5010234;28;92612;-72
2022/01/22 13:48:55;;;;;;;13.68;6.07;;;;;;;;;;5012137;28;92390;-71
2022/01/22 13:51:22;;;;;;;17.33;5.93;;;;;;;;;;5012393;28;93432;-71
2022/01/22 13:53:48;;;;;;;9.93;4.55;;;;;;;;;;5000388;28;93287;-71
2022/01/22 13:56:16;;;;;;;13.10;5.47;;;;;;;;;;4997799;28;92491;-71
2022/01/22 13:58:43;;;;;;;17.45;5.95;;;;;;;;;;5013136;28;94216;-71
2022/01/22 14:01:30;;;;;;;14.80;5.85;;;;;;;;;;5012396;28;92576;-71
2022/01/22 14:04:10;;;;;;;22.58;7.32;;;;;;;;;;5012926;28;94199;-71
2022/01/22 14:06:36;;;;;;;22.02;6.50;;;;;;;;;;5012152;28;93244;-71
2022/01/22 14:09:18;;;;;;;19.02;5.75;;;;;;;;;;5007553;28;92405;-71
2022/01/22 14:12:03;;;;;;;17.05;6.25;;;;;;;;;;5010672;28;94882;-71
2022/01/22 14:14:32;;;;;;;18.83;6.00;;;;;;;;;;5005716;28;93462;-71
2022/01/22 14:17:13;;;;;;;19.98;6.30;;;;;;;;;;5009815;28;92424;-71
2022/01/22 14:19:39;;;;;;;21.13;6.93;;;;;;;;;;5010720;28;93265;-71
2022/01/22 14:22:05;;;;;;;17.45;6.00;;;;;;;;;;5015197;28;92478;-71
2022/01/22 14:24:32;;;;;;;20.42;5.90;;;;;;;;;;5002711;28;93059;-71
2022/01/22 14:26:58;;;;;;;20.40;6.60;;;;;;;;;;4993227;28;93472;-71
2022/01/22 14:29:24;;;;;;;15.18;6.60;;;;;;;;;;4996406;28;92074;-71
2022/01/22 14:31:51;;;;;;;20.23;5.75;;;;;;;;;;5011377;28;92502;-71
2022/01/22 14:34:42;;;;;;;16.63;5.10;;;;;;;;;;5015173;28;92602;-71
2022/01/22 14:37:23;;;;;;;19.42;6.40;;;;;;;;;;5013735;28;94798;-71
2022/01/22 14:45:26;;;;;;;28.23;5.90;;;;;;;;;;5002190;28;92369;-71
2022/01/22 14:47:54;;;;;;;10.77;6.07;;;;;;;;;;4995977;28;94589;-71
2022/01/22 14:50:21;;;;;;;15.45;5.13;;;;;;;;;;4995985;28;92917;-70
2022/01/22 14:52:49;;;;;;;15.65;6.28;;;;;;;;;;5014124;28;94226;-73
2022/01/22 14:55:15;;;;;;;16.80;6.03;;;;;;;;;;5003396;28;93169;-70
2022/01/22 14:57:42;;;;;;;16.40;6.30;;;;;;;;;;4995676;28;92380;-70
2022/01/22 15:00:11;;;;;;;27.50;7.00;;;;;;;;;;5000763;28;94066;-70
2022/01/22 15:02:38;;;;;;;16.15;6.03;;;;;;;;;;5013318;28;94816;-70
2022/01/22 15:05:07;;;;;;;18.55;6.72;;;;;;;;;;5014993;28;92505;-69
2022/01/22 15:07:34;;;;;;;19.83;6.63;;;;;;;;;;5017901;28;92398;-68
2022/01/22 15:10:00;;;;;;;18.90;6.50;;;;;;;;;;5014966;28;92851;-70
2022/01/22 15:12:27;;;;;;;21.33;6.90;;;;;;;;;;5014733;28;92441;-69
2022/01/22 15:14:53;;;;;;;20.17;6.03;;;;;;;;;;5015249;28;93234;-70
2022/01/22 15:19:47;;;;;;;14.50;6.18;;;;;;;;;;5011524;28;94225;-71
2022/01/22 15:22:17;;;;;;;29.27;7.00;;;;;;;;;;5014368;28;92376;-71
2022/01/22 15:24:46;;;;;;;16.10;6.80;;;;;;;;;;5004990;28;92503;-69
2022/01/22 15:27:14;;;;;;;18.98;7.15;;;;;;;;;;4996478;28;94724;-69
2022/01/22 15:30:10;;;;;;;23.80;6.93;;;;;;;;;;4995250;28;92674;-70
2022/01/22 15:35:06;;;;;;;17.55;8.07;;;;;;;;;;5014275;28;93589;-70
2022/01/22 15:37:33;;;;;;;18.33;7.20;;;;;;;;;;5013883;28;92430;-69
2022/01/22 15:39:59;;;;;;;19.70;7.32;;;;;;;;;;4994603;28;92384;-69
2022/01/22 15:42:26;;;;;;;21.08;8.13;;;;;;;;;;5012625;28;92460;-69
2022/01/22 15:44:52;;;;;;;16.42;7.50;;;;;;;;;;5015334;28;91981;-69
2022/01/22 15:47:21;;;;;;;22.98;7.63;;;;;;;;;;5014697;28;93308;-69
2022/01/22 15:49:54;;;;;;;16.33;7.05;;;;;;;;;;4997874;28;93350;-69
2022/01/22 15:52:21;;;;;;;17.13;7.18;;;;;;;;;;5009562;28;94854;-71
2022/01/22 15:54:47;;;;;;;16.88;7.32;;;;;;;;;;4996063;28;94961;-71
2022/01/22 15:57:15;;;;;;;24.77;7.53;;;;;;;;;;5006591;28;92490;-71
2022/01/22 15:59:46;;;;;;;20.25;7.25;;;;;;;;;;5014135;28;93266;-71
2022/01/22 16:02:13;;;;;;;17.83;7.68;;;;;;;;;;4993929;28;92394;-71
2022/01/22 16:04:40;;;;;;;19.08;7.35;;;;;;;;;;4993664;28;92502;-71
2022/01/22 16:07:18;;;;;;;19.90;8.05;;;;;;;;;;5011725;28;93117;-72
2022/01/22 16:09:44;;;;;;;21.45;7.82;;;;;;;;;;5011648;28;91763;-70
2022/01/22 16:12:19;;;;;;;16.23;7.55;;;;;;;;;;4997816;28;92383;-71
2022/01/22 16:14:47;;;;;;;18.92;7.50;;;;;;;;;;5006683;28;93478;-71
2022/01/22 16:17:15;;;;;;;20.90;9.40;;;;;;;;;;5012251;28;94778;-69
2022/01/22 16:19:41;;;;;;;22.83;10.65;;;;;;;;;;5012333;28;94088;-70
2022/01/22 16:22:07;;;;;;;27.20;11.50;;;;;;;;;;5011872;28;93091;-70
2022/01/22 16:24:34;;;;;;;21.65;11.15;;;;;;;;;;5013502;28;93090;-70
2022/01/22 16:27:01;;;;;;;19.98;9.80;;;;;;;;;;5013258;28;94213;-70
2022/01/22 16:29:27;;;;;;;27.70;10.95;;;;;;;;;;4995544;28;93457;-70
2022/01/22 16:31:54;;;;;;;21.52;9.00;;;;;;;;;;4999508;28;94167;-70
2022/01/22 16:34:21;;;;;;;18.45;8.73;;;;;;;;;;5017216;28;92387;-72